createdAt,value
2023-04-25T00:00:08.097Z,11.69
2023-04-25T00:00:39.717Z,11.71
2023-04-25T00:01:14.010Z,11.71
2023-04-25T00:01:45.725Z,11.70
2023-04-25T00:02:17.367Z,11.70
2023-04-25T00:02:49.648Z,11.71
2023-04-25T00:03:22.254Z,11.74
2023-04-25T00:03:54.311Z,11.73
2023-04-25T00:04:28.784Z,11.70
2023-04-25T00:05:00.780Z,11.69
2023-04-25T00:05:33.024Z,11.70
2023-04-25T00:06:04.758Z,11.69
2023-04-25T00:06:37.354Z,11.69
2023-04-25T00:07:09.172Z,11.69
2023-04-25T00:07:43.050Z,11.70
2023-04-25T00:08:14.860Z,11.69
2023-04-25T00:08:46.525Z,11.67
2023-04-25T00:09:18.158Z,11.67
2023-04-25T00:09:49.798Z,11.71
2023-04-25T00:10:21.856Z,11.70
2023-04-25T00:10:53.512Z,11.67
2023-04-25T00:11:25.385Z,11.67
2023-04-25T00:11:57.324Z,11.71
2023-04-25T00:12:29.795Z,11.69
2023-04-25T00:13:04.036Z,11.70
2023-04-25T00:13:35.662Z,11.63
2023-04-25T00:14:07.881Z,11.62
2023-04-25T00:14:39.876Z,11.63
2023-04-25T00:15:12.542Z,11.65
2023-04-25T00:15:44.572Z,11.65
2023-04-25T00:16:16.701Z,11.62
2023-04-25T00:16:49.431Z,11.63
2023-04-25T00:17:21.103Z,11.66
2023-04-25T00:17:54.162Z,11.63
2023-04-25T00:18:25.876Z,11.67
2023-04-25T00:18:57.762Z,11.65
2023-04-25T00:19:29.738Z,11.66
2023-04-25T00:20:02.011Z,11.63
2023-04-25T00:20:33.722Z,11.65
2023-04-25T00:21:07.355Z,11.65
2023-04-25T00:21:41.592Z,11.67
2023-04-25T00:22:14.312Z,11.66
2023-04-25T00:22:46.393Z,11.62
2023-04-25T00:23:21.326Z,11.63
2023-04-25T00:23:54.066Z,11.62
2023-04-25T00:24:25.716Z,11.65
2023-04-25T00:24:58.381Z,11.62
2023-04-25T00:25:30.117Z,11.63
2023-04-25T00:26:01.751Z,11.65
2023-04-25T00:26:34.591Z,11.65
2023-04-25T00:27:06.258Z,11.63
2023-04-25T00:27:37.962Z,11.62
2023-04-25T00:28:09.596Z,11.60
2023-04-25T00:28:41.713Z,11.59
2023-04-25T00:29:13.427Z,11.62
2023-04-25T00:29:45.063Z,11.58
2023-04-25T00:30:16.738Z,11.59
2023-04-25T00:30:48.345Z,11.65
2023-04-25T00:31:20.025Z,11.60
2023-04-25T00:31:51.722Z,11.59
2023-04-25T00:32:23.445Z,11.56
2023-04-25T00:32:55.148Z,11.55
2023-04-25T00:33:26.869Z,11.58
2023-04-25T00:33:58.510Z,11.56
2023-04-25T00:34:30.261Z,11.56
2023-04-25T00:35:01.906Z,11.55
2023-04-25T00:35:34.216Z,11.53
2023-04-25T00:36:06.821Z,11.53
2023-04-25T00:36:39.213Z,11.53
2023-04-25T00:37:11.568Z,11.52
2023-04-25T00:37:43.251Z,11.50
2023-04-25T00:38:14.916Z,11.52
2023-04-25T00:38:46.515Z,11.50
2023-04-25T00:39:18.144Z,11.46
2023-04-25T00:39:50.334Z,11.47
2023-04-25T00:40:22.341Z,11.44
2023-04-25T00:40:54.175Z,11.44
2023-04-25T00:41:27.277Z,11.43
2023-04-25T00:41:59.427Z,11.42
2023-04-25T00:42:31.975Z,11.40
2023-04-25T00:43:03.696Z,11.42
2023-04-25T00:43:37.818Z,11.38
2023-04-25T00:44:12.382Z,11.42
2023-04-25T00:44:46.130Z,11.42
2023-04-25T00:45:18.338Z,11.39
2023-04-25T00:45:51.733Z,11.40
2023-04-25T00:46:23.419Z,11.35
2023-04-25T00:46:56.561Z,11.32
2023-04-25T00:47:29.840Z,11.36
2023-04-25T00:48:02.004Z,11.35
2023-04-25T00:48:33.602Z,11.33
2023-04-25T00:49:05.309Z,11.33
2023-04-25T00:49:36.961Z,11.36
2023-04-25T00:50:09.678Z,11.35
2023-04-25T00:50:41.614Z,11.38
2023-04-25T00:51:20.209Z,11.32
2023-04-25T00:51:51.887Z,11.33
2023-04-25T00:52:23.585Z,11.32
2023-04-25T00:52:55.398Z,11.30
2023-04-25T00:53:28.743Z,11.33
2023-04-25T00:54:00.654Z,11.29
2023-04-25T00:54:32.817Z,11.29
2023-04-25T00:55:04.850Z,11.30
2023-04-25T00:55:37.278Z,11.28
2023-04-25T00:56:09.214Z,11.30
2023-04-25T00:56:40.911Z,11.30
2023-04-25T00:57:12.603Z,11.28
2023-04-25T00:57:44.315Z,11.28
2023-04-25T00:58:15.905Z,11.26
2023-04-25T00:58:48.131Z,11.28
2023-04-25T00:59:21.246Z,11.29
2023-04-25T00:59:54.284Z,11.26
2023-04-25T01:00:25.914Z,11.26
2023-04-25T01:00:58.857Z,11.23
2023-04-25T01:01:32.329Z,11.26
2023-04-25T01:02:04.712Z,11.26
2023-04-25T01:02:37.114Z,11.25
2023-04-25T01:03:09.069Z,11.29
2023-04-25T01:03:44.667Z,11.22
2023-04-25T01:04:16.463Z,11.26
2023-04-25T01:04:49.166Z,11.28
2023-04-25T01:05:20.844Z,11.26
2023-04-25T01:05:52.887Z,11.28
2023-04-25T01:06:24.995Z,11.29
2023-04-25T01:06:56.852Z,11.26
2023-04-25T01:07:28.530Z,11.26
2023-04-25T01:08:00.632Z,11.26
2023-04-25T01:08:32.502Z,11.23
2023-04-25T01:09:05.906Z,11.23
2023-04-25T01:09:37.790Z,11.26
2023-04-25T01:10:10.130Z,11.22
2023-04-25T01:10:41.782Z,11.22
2023-04-25T01:11:13.400Z,11.26
2023-04-25T01:11:45.015Z,11.26
2023-04-25T01:12:16.885Z,11.26
2023-04-25T01:12:48.661Z,11.29
2023-04-25T01:13:21.003Z,11.25
2023-04-25T01:13:52.876Z,11.26
2023-04-25T01:14:24.844Z,11.26
2023-04-25T01:14:56.506Z,11.29
2023-04-25T01:15:28.325Z,11.29
2023-04-25T01:16:01.127Z,11.30
2023-04-25T01:16:34.279Z,11.30
2023-04-25T01:17:06.468Z,11.33
2023-04-25T01:17:38.488Z,11.33
2023-04-25T01:18:10.752Z,11.30
2023-04-25T01:18:43.342Z,11.32
2023-04-25T01:19:17.863Z,11.33
2023-04-25T01:19:50.056Z,11.36
2023-04-25T01:20:24.133Z,11.30
2023-04-25T01:20:56.657Z,11.33
2023-04-25T01:21:30.824Z,11.30
2023-04-25T01:22:02.738Z,11.35
2023-04-25T01:22:34.584Z,11.33
2023-04-25T01:23:06.447Z,11.32
2023-04-25T01:23:41.068Z,11.29
2023-04-25T01:24:13.699Z,11.29
2023-04-25T01:24:45.608Z,11.30
2023-04-25T01:25:18.042Z,11.32
2023-04-25T01:25:50.822Z,11.33
2023-04-25T01:26:23.069Z,11.36
2023-04-25T01:26:57.323Z,11.38
2023-04-25T01:27:29.337Z,11.36
2023-04-25T01:28:01.180Z,11.33
2023-04-25T01:28:34.584Z,11.28
2023-04-25T01:29:06.254Z,11.28
2023-04-25T01:29:38.096Z,11.30
2023-04-25T01:30:10.554Z,11.29
2023-04-25T01:30:42.411Z,11.35
2023-04-25T01:31:15.426Z,11.30
2023-04-25T01:31:47.879Z,11.33
2023-04-25T01:32:19.638Z,11.32
2023-04-25T01:32:52.077Z,11.33
2023-04-25T01:33:23.834Z,11.33
2023-04-25T01:33:55.563Z,11.36
2023-04-25T01:34:27.455Z,11.39
2023-04-25T01:34:59.089Z,11.36
2023-04-25T01:35:31.007Z,11.33
2023-04-25T01:36:02.752Z,11.30
2023-04-25T01:36:35.225Z,11.33
2023-04-25T01:37:06.854Z,11.30
2023-04-25T01:37:42.394Z,11.29
2023-04-25T01:38:14.742Z,11.30
2023-04-25T01:38:48.401Z,11.30
2023-04-25T01:39:20.603Z,11.29
2023-04-25T01:39:52.350Z,11.28
2023-04-25T01:40:25.679Z,11.30
2023-04-25T01:40:57.294Z,11.32
2023-04-25T01:41:29.384Z,11.30
2023-04-25T01:42:02.617Z,11.25
2023-04-25T01:42:34.778Z,11.25
2023-04-25T01:43:06.624Z,11.26
2023-04-25T01:43:38.297Z,11.29
2023-04-25T01:44:10.079Z,11.25
2023-04-25T01:44:44.844Z,11.30
2023-04-25T01:45:16.670Z,11.32
2023-04-25T01:45:50.156Z,11.29
2023-04-25T01:46:22.063Z,11.32
2023-04-25T01:46:53.815Z,11.29
2023-04-25T01:47:25.565Z,11.29
2023-04-25T01:48:00.370Z,11.30
2023-04-25T01:48:32.221Z,11.30
2023-04-25T01:49:04.309Z,11.28
2023-04-25T01:49:35.992Z,11.28
2023-04-25T01:50:09.116Z,11.26
2023-04-25T01:50:41.982Z,11.29
2023-04-25T01:51:14.136Z,11.30
2023-04-25T01:51:45.868Z,11.32
2023-04-25T01:52:17.658Z,11.32
2023-04-25T01:52:49.413Z,11.30
2023-04-25T01:53:21.217Z,11.32
2023-04-25T01:53:53.544Z,11.30
2023-04-25T01:54:25.125Z,11.29
2023-04-25T01:54:58.410Z,11.29
2023-04-25T01:55:30.053Z,11.26
2023-04-25T01:56:01.763Z,11.29
2023-04-25T01:56:34.232Z,11.32
2023-04-25T01:57:05.863Z,11.35
2023-04-25T01:57:37.494Z,11.29
2023-04-25T01:58:10.755Z,11.32
2023-04-25T01:58:42.395Z,11.30
2023-04-25T01:59:14.031Z,11.30
2023-04-25T01:59:45.825Z,11.33
2023-04-25T02:00:17.643Z,11.30
2023-04-25T02:00:49.350Z,11.35
2023-04-25T02:01:21.024Z,11.30
2023-04-25T02:01:52.871Z,11.32
2023-04-25T02:02:24.655Z,11.32
2023-04-25T02:02:59.768Z,11.33
2023-04-25T02:03:33.129Z,11.38
2023-04-25T02:04:05.287Z,11.39
2023-04-25T02:04:37.225Z,11.35
2023-04-25T02:05:09.125Z,11.36
2023-04-25T02:05:41.482Z,11.36
2023-04-25T02:06:13.127Z,11.30
2023-04-25T02:06:44.739Z,11.30
2023-04-25T02:07:16.874Z,11.33
2023-04-25T02:07:49.075Z,11.36
2023-04-25T02:08:20.980Z,11.36
2023-04-25T02:08:52.577Z,11.33
2023-04-25T02:09:24.483Z,11.30
2023-04-25T02:09:56.113Z,11.30
2023-04-25T02:10:27.709Z,11.32
2023-04-25T02:10:59.365Z,11.30
2023-04-25T02:11:31.141Z,11.26
2023-04-25T02:12:03.057Z,11.32
2023-04-25T02:12:34.794Z,11.33
2023-04-25T02:13:06.591Z,11.29
2023-04-25T02:13:38.230Z,11.26
2023-04-25T02:14:09.879Z,11.29
2023-04-25T02:14:41.506Z,11.28
2023-04-25T02:15:13.163Z,11.26
2023-04-25T02:15:44.896Z,11.26
2023-04-25T02:16:16.691Z,11.28
2023-04-25T02:16:48.466Z,11.28
2023-04-25T02:17:20.183Z,11.28
2023-04-25T02:17:53.805Z,11.28
2023-04-25T02:18:27.259Z,11.28
2023-04-25T02:18:58.901Z,11.26
2023-04-25T02:19:30.731Z,11.28
2023-04-25T02:20:02.593Z,11.32
2023-04-25T02:20:34.279Z,11.28
2023-04-25T02:21:05.874Z,11.28
2023-04-25T02:21:38.187Z,11.25
2023-04-25T02:22:09.832Z,11.26
2023-04-25T02:22:41.537Z,11.26
2023-04-25T02:23:13.306Z,11.26
2023-04-25T02:23:47.056Z,11.23
2023-04-25T02:24:18.666Z,11.22
2023-04-25T02:24:50.439Z,11.22
2023-04-25T02:25:22.821Z,11.25
2023-04-25T02:25:56.286Z,11.25
2023-04-25T02:26:28.019Z,11.26
2023-04-25T02:26:59.769Z,11.21
2023-04-25T02:27:31.957Z,11.21
2023-04-25T02:28:03.717Z,11.18
2023-04-25T02:28:35.544Z,11.22
2023-04-25T02:29:07.142Z,11.19
2023-04-25T02:29:39.273Z,11.18
2023-04-25T02:30:11.287Z,11.11
2023-04-25T02:30:42.906Z,11.14
2023-04-25T02:31:14.545Z,11.14
2023-04-25T02:31:46.271Z,11.15
2023-04-25T02:32:17.959Z,11.16
2023-04-25T02:32:49.564Z,11.18
2023-04-25T02:33:22.070Z,11.18
2023-04-25T02:33:53.824Z,11.19
2023-04-25T02:34:25.704Z,11.19
2023-04-25T02:34:59.672Z,11.22
2023-04-25T02:35:31.273Z,11.23
2023-04-25T02:36:02.904Z,11.18
2023-04-25T02:36:36.500Z,11.16
2023-04-25T02:37:08.142Z,11.16
2023-04-25T02:37:40.713Z,11.21
2023-04-25T02:38:12.294Z,11.18
2023-04-25T02:38:43.884Z,11.16
2023-04-25T02:39:15.589Z,11.18
2023-04-25T02:39:47.297Z,11.16
2023-04-25T02:40:18.890Z,11.15
2023-04-25T02:40:50.489Z,11.12
2023-04-25T02:41:22.131Z,11.18
2023-04-25T02:41:53.848Z,11.12
2023-04-25T02:42:25.468Z,11.11
2023-04-25T02:42:57.106Z,11.11
2023-04-25T02:43:28.744Z,11.11
2023-04-25T02:44:00.446Z,11.14
2023-04-25T02:44:32.192Z,11.11
2023-04-25T02:45:04.178Z,11.11
2023-04-25T02:45:36.357Z,11.08
2023-04-25T02:46:08.900Z,11.09
2023-04-25T02:46:40.624Z,11.08
2023-04-25T02:47:12.313Z,11.11
2023-04-25T02:47:44.057Z,11.07
2023-04-25T02:48:15.809Z,11.08
2023-04-25T02:48:47.845Z,11.08
2023-04-25T02:49:19.496Z,11.12
2023-04-25T02:49:51.127Z,11.11
2023-04-25T02:50:22.815Z,11.08
2023-04-25T02:50:54.414Z,11.12
2023-04-25T02:51:26.101Z,11.07
2023-04-25T02:51:57.723Z,11.09
2023-04-25T02:52:29.354Z,11.12
2023-04-25T02:53:00.964Z,11.09
2023-04-25T02:53:32.598Z,11.09
2023-04-25T02:54:04.525Z,11.08
2023-04-25T02:54:36.188Z,11.05
2023-04-25T02:55:08.135Z,11.05
2023-04-25T02:55:39.875Z,11.02
2023-04-25T02:56:11.862Z,11.04
2023-04-25T02:56:43.454Z,11.05
2023-04-25T02:57:15.094Z,11.08
2023-04-25T02:57:46.723Z,11.08
2023-04-25T02:58:18.716Z,11.05
2023-04-25T02:58:50.352Z,11.05
2023-04-25T02:59:21.991Z,11.08
2023-04-25T02:59:53.622Z,11.08
2023-04-25T03:00:25.285Z,11.07
2023-04-25T03:00:56.977Z,11.05
2023-04-25T03:01:28.713Z,11.05
2023-04-25T03:02:00.426Z,11.08
2023-04-25T03:02:32.134Z,11.07
2023-04-25T03:03:04.029Z,11.05
2023-04-25T03:03:35.834Z,11.07
2023-04-25T03:04:07.557Z,11.07
2023-04-25T03:04:39.694Z,11.04
2023-04-25T03:05:11.343Z,11.02
2023-04-25T03:05:43.335Z,11.04
2023-04-25T03:06:16.548Z,11.01
2023-04-25T03:06:48.326Z,11.05
2023-04-25T03:07:20.008Z,11.01
2023-04-25T03:07:51.616Z,11.01
2023-04-25T03:08:23.888Z,11.04
2023-04-25T03:08:55.538Z,11.01
2023-04-25T03:09:27.131Z,10.98
2023-04-25T03:09:58.746Z,10.94
2023-04-25T03:10:30.366Z,10.97
2023-04-25T03:11:02.106Z,10.98
2023-04-25T03:11:33.865Z,10.95
2023-04-25T03:12:05.870Z,10.94
2023-04-25T03:12:37.845Z,10.91
2023-04-25T03:13:09.572Z,10.94
2023-04-25T03:13:41.225Z,10.90
2023-04-25T03:14:13.978Z,10.92
2023-04-25T03:14:45.673Z,10.91
2023-04-25T03:15:17.790Z,10.90
2023-04-25T03:15:49.429Z,10.88
2023-04-25T03:16:21.255Z,10.88
2023-04-25T03:16:52.974Z,10.85
2023-04-25T03:17:24.729Z,10.85
2023-04-25T03:17:56.472Z,10.82
2023-04-25T03:18:28.154Z,10.85
2023-04-25T03:18:59.762Z,10.82
2023-04-25T03:19:31.514Z,10.85
2023-04-25T03:20:05.081Z,10.85
2023-04-25T03:20:36.731Z,10.81
2023-04-25T03:21:08.460Z,10.78
2023-04-25T03:21:40.145Z,10.77
2023-04-25T03:22:11.782Z,10.77
2023-04-25T03:22:43.628Z,10.78
2023-04-25T03:23:15.416Z,10.80
2023-04-25T03:23:47.079Z,10.78
2023-04-25T03:24:18.766Z,10.77
2023-04-25T03:24:51.187Z,10.80
2023-04-25T03:25:22.803Z,10.77
2023-04-25T03:25:54.378Z,10.77
2023-04-25T03:26:26.111Z,10.80
2023-04-25T03:26:57.766Z,10.82
2023-04-25T03:27:29.498Z,10.81
2023-04-25T03:28:01.134Z,10.77
2023-04-25T03:28:32.819Z,10.81
2023-04-25T03:29:04.466Z,10.80
2023-04-25T03:29:36.604Z,10.81
2023-04-25T03:30:08.917Z,10.87
2023-04-25T03:30:40.576Z,10.80
2023-04-25T03:31:12.219Z,10.78
2023-04-25T03:31:44.716Z,10.80
2023-04-25T03:32:16.419Z,10.74
2023-04-25T03:32:48.060Z,10.74
2023-04-25T03:33:19.757Z,10.70
2023-04-25T03:33:51.663Z,10.70
2023-04-25T03:34:23.553Z,10.72
2023-04-25T03:34:55.125Z,10.68
2023-04-25T03:35:26.766Z,10.70
2023-04-25T03:35:58.397Z,10.67
2023-04-25T03:36:30.074Z,10.68
2023-04-25T03:37:01.758Z,10.67
2023-04-25T03:37:33.384Z,10.70
2023-04-25T03:38:04.979Z,10.70
2023-04-25T03:38:36.906Z,10.68
2023-04-25T03:39:08.508Z,10.68
2023-04-25T03:39:40.160Z,10.67
2023-04-25T03:40:12.126Z,10.65
2023-04-25T03:40:43.721Z,10.70
2023-04-25T03:41:15.572Z,10.68
2023-04-25T03:41:47.241Z,10.67
2023-04-25T03:42:18.907Z,10.65
2023-04-25T03:42:50.591Z,10.68
2023-04-25T03:43:22.307Z,10.67
2023-04-25T03:43:53.925Z,10.68
2023-04-25T03:44:25.801Z,10.65
2023-04-25T03:44:57.448Z,10.67
2023-04-25T03:45:29.081Z,10.64
2023-04-25T03:46:02.510Z,10.63
2023-04-25T03:46:34.196Z,10.67
2023-04-25T03:47:06.196Z,10.65
2023-04-25T03:47:38.069Z,10.64
2023-04-25T03:48:09.761Z,10.67
2023-04-25T03:48:41.475Z,10.68
2023-04-25T03:49:13.064Z,10.61
2023-04-25T03:49:45.660Z,10.63
2023-04-25T03:50:17.298Z,10.64
2023-04-25T03:50:49.195Z,10.61
2023-04-25T03:51:20.969Z,10.61
2023-04-25T03:51:52.628Z,10.70
2023-04-25T03:52:24.254Z,10.71
2023-04-25T03:52:56.016Z,10.71
2023-04-25T03:53:27.628Z,10.71
2023-04-25T03:53:59.352Z,10.72
2023-04-25T03:54:31.035Z,10.77
2023-04-25T03:55:02.699Z,10.65
2023-04-25T03:55:34.353Z,10.65
2023-04-25T03:56:06.335Z,10.70
2023-04-25T03:56:37.981Z,10.67
2023-04-25T03:57:09.581Z,10.65
2023-04-25T03:57:41.512Z,10.65
2023-04-25T03:58:13.229Z,10.64
2023-04-25T03:58:45.104Z,10.68
2023-04-25T03:59:16.770Z,10.65
2023-04-25T03:59:48.393Z,10.65
2023-04-25T04:00:20.106Z,10.61
2023-04-25T04:00:51.734Z,10.68
2023-04-25T04:01:23.591Z,10.64
2023-04-25T04:01:55.797Z,10.61
2023-04-25T04:02:27.585Z,10.60
2023-04-25T04:02:59.314Z,10.63
2023-04-25T04:03:31.354Z,10.61
2023-04-25T04:04:03.619Z,10.60
2023-04-25T04:04:35.725Z,10.56
2023-04-25T04:05:07.880Z,10.57
2023-04-25T04:05:41.729Z,10.63
2023-04-25T04:06:14.199Z,10.57
2023-04-25T04:06:46.859Z,10.63
2023-04-25T04:07:18.564Z,10.57
2023-04-25T04:07:50.334Z,10.57
2023-04-25T04:08:21.958Z,10.47
2023-04-25T04:08:53.667Z,10.51
2023-04-25T04:09:25.315Z,10.60
2023-04-25T04:09:56.928Z,10.53
2023-04-25T04:10:28.523Z,10.51
2023-04-25T04:11:00.445Z,10.50
2023-04-25T04:11:33.430Z,10.50
2023-04-25T04:12:05.216Z,10.47
2023-04-25T04:12:37.208Z,10.49
2023-04-25T04:13:08.799Z,10.51
2023-04-25T04:13:40.448Z,10.49
2023-04-25T04:14:12.141Z,10.46
2023-04-25T04:14:43.775Z,10.53
2023-04-25T04:15:15.527Z,10.53
2023-04-25T04:15:47.206Z,10.49
2023-04-25T04:16:19.873Z,10.46
2023-04-25T04:16:52.422Z,10.46
2023-04-25T04:17:24.124Z,10.47
2023-04-25T04:17:55.976Z,10.49
2023-04-25T04:18:27.644Z,10.43
2023-04-25T04:18:59.300Z,10.43
2023-04-25T04:19:31.019Z,10.40
2023-04-25T04:20:04.449Z,10.40
2023-04-25T04:20:36.227Z,10.40
2023-04-25T04:21:07.903Z,10.36
2023-04-25T04:21:39.517Z,10.33
2023-04-25T04:22:11.532Z,10.28
2023-04-25T04:22:43.154Z,10.30
2023-04-25T04:23:14.939Z,10.30
2023-04-25T04:23:47.630Z,10.29
2023-04-25T04:24:19.297Z,10.32
2023-04-25T04:24:51.151Z,10.28
2023-04-25T04:25:22.834Z,10.30
2023-04-25T04:25:55.195Z,10.30
2023-04-25T04:26:27.196Z,10.24
2023-04-25T04:26:58.883Z,10.20
2023-04-25T04:27:30.546Z,10.22
2023-04-25T04:28:02.432Z,10.22
2023-04-25T04:28:34.057Z,10.24
2023-04-25T04:29:06.228Z,10.22
2023-04-25T04:29:38.099Z,10.16
2023-04-25T04:30:10.692Z,10.10
2023-04-25T04:30:43.502Z,10.08
2023-04-25T04:31:17.967Z,10.13
2023-04-25T04:31:51.748Z,10.03
2023-04-25T04:32:24.709Z,10.06
2023-04-25T04:32:57.208Z,10.05
2023-04-25T04:33:29.341Z,10.03
2023-04-25T04:34:02.695Z,10.01
2023-04-25T04:34:34.876Z,10.02
2023-04-25T04:35:07.339Z,9.98
2023-04-25T04:35:39.030Z,9.99
2023-04-25T04:36:10.914Z,9.95
2023-04-25T04:36:42.527Z,9.96
2023-04-25T04:37:14.202Z,9.91
2023-04-25T04:37:46.830Z,9.86
2023-04-25T04:38:19.679Z,9.91
2023-04-25T04:38:51.356Z,9.85
2023-04-25T04:39:23.292Z,9.81
2023-04-25T04:39:55.017Z,9.84
2023-04-25T04:40:27.220Z,9.81
2023-04-25T04:40:58.971Z,9.85
2023-04-25T04:41:31.274Z,9.79
2023-04-25T04:42:04.211Z,9.74
2023-04-25T04:42:37.340Z,9.75
2023-04-25T04:43:11.195Z,9.81
2023-04-25T04:43:43.019Z,9.82
2023-04-25T04:44:15.121Z,9.85
2023-04-25T04:44:46.726Z,9.85
2023-04-25T04:45:19.181Z,9.71
2023-04-25T04:45:57.235Z,9.74
2023-04-25T04:46:29.291Z,9.74
2023-04-25T04:47:01.326Z,9.72
2023-04-25T04:47:33.688Z,9.75
2023-04-25T04:48:07.484Z,9.71
2023-04-25T04:48:41.132Z,9.65
2023-04-25T04:49:14.908Z,9.62
2023-04-25T04:49:46.575Z,9.62
2023-04-25T04:50:19.314Z,9.64
2023-04-25T04:50:51.247Z,9.62
2023-04-25T04:51:23.089Z,9.54
2023-04-25T04:51:56.842Z,9.52
2023-04-25T04:52:30.026Z,9.57
2023-04-25T04:53:01.602Z,9.62
2023-04-25T04:53:33.504Z,9.59
2023-04-25T04:54:05.629Z,9.58
2023-04-25T04:54:37.231Z,9.57
2023-04-25T04:55:09.649Z,9.62
2023-04-25T04:55:42.274Z,9.57
2023-04-25T04:56:13.958Z,9.52
2023-04-25T04:56:45.585Z,9.57
2023-04-25T04:57:17.801Z,9.54
2023-04-25T04:57:49.992Z,9.54
2023-04-25T04:58:23.145Z,9.59
2023-04-25T04:58:54.759Z,9.58
2023-04-25T04:59:26.444Z,9.48
2023-04-25T04:59:58.246Z,9.52
2023-04-25T05:00:30.609Z,9.52
2023-04-25T05:01:02.416Z,9.54
2023-04-25T05:01:36.790Z,9.54
2023-04-25T05:02:08.493Z,9.52
2023-04-25T05:02:40.826Z,9.48
2023-04-25T05:03:12.710Z,9.44
2023-04-25T05:03:44.842Z,9.51
2023-04-25T05:04:16.735Z,9.51
2023-04-25T05:04:48.539Z,9.51
2023-04-25T05:05:20.309Z,9.55
2023-04-25T05:05:51.942Z,9.50
2023-04-25T05:06:23.552Z,9.45
2023-04-25T05:06:55.310Z,9.45
2023-04-25T05:07:27.009Z,9.52
2023-04-25T05:07:58.657Z,9.47
2023-04-25T05:08:30.445Z,9.52
2023-04-25T05:09:02.108Z,9.50
2023-04-25T05:09:33.729Z,9.54
2023-04-25T05:10:05.942Z,9.54
2023-04-25T05:10:37.644Z,9.44
2023-04-25T05:11:09.355Z,9.57
2023-04-25T05:11:40.956Z,9.59
2023-04-25T05:12:12.659Z,9.58
2023-04-25T05:12:44.363Z,9.59
2023-04-25T05:13:16.009Z,9.61
2023-04-25T05:13:47.682Z,9.64
2023-04-25T05:14:19.359Z,9.59
2023-04-25T05:14:50.961Z,9.59
2023-04-25T05:15:22.569Z,9.57
2023-04-25T05:15:54.184Z,9.52
2023-04-25T05:16:25.853Z,9.57
2023-04-25T05:16:57.558Z,9.64
2023-04-25T05:17:29.214Z,9.62
2023-04-25T05:18:00.897Z,9.64
2023-04-25T05:18:32.790Z,9.64
2023-04-25T05:19:04.520Z,9.62
2023-04-25T05:19:36.464Z,9.62
2023-04-25T05:20:10.469Z,9.64
2023-04-25T05:20:42.248Z,9.70
2023-04-25T05:21:13.851Z,9.68
2023-04-25T05:21:45.436Z,9.72
2023-04-25T05:22:17.329Z,9.71
2023-04-25T05:22:48.960Z,9.71
2023-04-25T05:23:20.842Z,9.77
2023-04-25T05:23:52.777Z,9.68
2023-04-25T05:24:24.711Z,9.67
2023-04-25T05:24:56.447Z,9.70
2023-04-25T05:25:28.380Z,9.70
2023-04-25T05:26:00.731Z,9.68
2023-04-25T05:26:32.419Z,9.72
2023-04-25T05:27:04.082Z,9.70
2023-04-25T05:27:35.731Z,9.62
2023-04-25T05:28:07.528Z,9.71
2023-04-25T05:28:39.180Z,9.78
2023-04-25T05:29:10.872Z,9.79
2023-04-25T05:29:42.544Z,9.81
2023-04-25T05:30:14.229Z,9.84
2023-04-25T05:30:45.823Z,9.88
2023-04-25T05:31:17.519Z,9.89
2023-04-25T05:31:49.422Z,9.84
2023-04-25T05:32:21.210Z,9.92
2023-04-25T05:32:52.876Z,9.86
2023-04-25T05:33:24.556Z,9.93
2023-04-25T05:33:56.345Z,9.86
2023-04-25T05:34:27.993Z,9.81
2023-04-25T05:34:59.629Z,9.77
2023-04-25T05:35:31.415Z,9.89
2023-04-25T05:36:03.047Z,9.91
2023-04-25T05:36:34.647Z,9.93
2023-04-25T05:37:06.325Z,9.93
2023-04-25T05:37:37.903Z,9.93
2023-04-25T05:38:09.608Z,9.92
2023-04-25T05:38:41.385Z,9.99
2023-04-25T05:39:13.318Z,9.93
2023-04-25T05:39:45.142Z,9.95
2023-04-25T05:40:16.869Z,9.92
2023-04-25T05:40:48.512Z,9.99
2023-04-25T05:41:20.104Z,10.05
2023-04-25T05:41:51.678Z,10.06
2023-04-25T05:42:23.337Z,9.98
2023-04-25T05:42:55.039Z,10.03
2023-04-25T05:43:26.708Z,10.12
2023-04-25T05:43:58.687Z,10.12
2023-04-25T05:44:31.391Z,10.13
2023-04-25T05:45:04.718Z,10.12
2023-04-25T05:45:36.588Z,10.19
2023-04-25T05:46:08.499Z,10.16
2023-04-25T05:46:40.474Z,10.19
2023-04-25T05:47:12.139Z,10.22
2023-04-25T05:47:44.360Z,10.30
2023-04-25T05:48:18.848Z,10.29
2023-04-25T05:48:50.602Z,10.36
2023-04-25T05:49:22.600Z,10.28
2023-04-25T05:49:54.312Z,10.28
2023-04-25T05:50:26.334Z,10.24
2023-04-25T05:50:58.025Z,10.29
2023-04-25T05:51:29.615Z,10.39
2023-04-25T05:52:01.377Z,10.43
2023-04-25T05:52:32.982Z,10.39
2023-04-25T05:53:04.898Z,10.42
2023-04-25T05:53:36.637Z,10.50
2023-04-25T05:54:08.250Z,10.47
2023-04-25T05:54:39.813Z,10.46
2023-04-25T05:55:11.434Z,10.46
2023-04-25T05:55:43.192Z,10.40
2023-04-25T05:56:14.848Z,10.47
2023-04-25T05:56:46.518Z,10.54
2023-04-25T05:57:24.938Z,10.57
2023-04-25T05:57:56.546Z,10.70
2023-04-25T05:58:28.226Z,10.65
2023-04-25T05:58:59.887Z,10.63
2023-04-25T05:59:31.551Z,10.59
2023-04-25T06:00:04.445Z,10.64
2023-04-25T06:00:36.318Z,10.74
2023-04-25T06:01:07.929Z,10.72
2023-04-25T06:01:39.685Z,10.64
2023-04-25T06:02:11.848Z,10.61
2023-04-25T06:02:43.691Z,10.71
2023-04-25T06:03:18.785Z,10.72
2023-04-25T06:03:54.248Z,10.82
2023-04-25T06:04:26.830Z,10.85
2023-04-25T06:04:59.057Z,10.80
2023-04-25T06:05:31.517Z,10.90
2023-04-25T06:06:03.659Z,10.91
2023-04-25T06:06:35.305Z,10.97
2023-04-25T06:07:06.980Z,10.97
2023-04-25T06:07:38.606Z,11.09
2023-04-25T06:08:10.972Z,11.09
2023-04-25T06:08:42.615Z,11.02
2023-04-25T06:09:14.626Z,11.15
2023-04-25T06:09:46.296Z,11.15
2023-04-25T06:10:17.860Z,11.19
2023-04-25T06:10:49.800Z,11.25
2023-04-25T06:11:21.452Z,11.15
2023-04-25T06:11:53.062Z,11.12
2023-04-25T06:12:24.660Z,11.19
2023-04-25T06:12:56.217Z,11.29
2023-04-25T06:13:27.912Z,11.25
2023-04-25T06:13:59.590Z,11.23
2023-04-25T06:14:32.028Z,11.32
2023-04-25T06:15:08.198Z,11.29
2023-04-25T06:15:45.568Z,11.22
2023-04-25T06:16:17.308Z,11.21
2023-04-25T06:16:51.225Z,11.29
2023-04-25T06:17:22.992Z,11.23
2023-04-25T06:17:54.812Z,11.21
2023-04-25T06:18:26.604Z,11.25
2023-04-25T06:18:58.234Z,11.29
2023-04-25T06:19:29.922Z,11.29
2023-04-25T06:20:01.569Z,11.35
2023-04-25T06:20:33.751Z,11.46
2023-04-25T06:21:05.813Z,11.46
2023-04-25T06:21:37.416Z,11.36
2023-04-25T06:22:09.281Z,11.49
2023-04-25T06:22:40.849Z,11.52
2023-04-25T06:23:12.461Z,11.52
2023-04-25T06:23:44.082Z,11.56
2023-04-25T06:24:15.907Z,11.50
2023-04-25T06:24:48.052Z,11.66
2023-04-25T06:25:20.457Z,11.67
2023-04-25T06:25:52.109Z,11.65
2023-04-25T06:26:23.712Z,11.55
2023-04-25T06:26:55.933Z,11.58
2023-04-25T06:27:27.542Z,11.53
2023-04-25T06:27:59.230Z,11.69
2023-04-25T06:28:31.005Z,11.71
2023-04-25T06:29:03.365Z,11.74
2023-04-25T06:29:36.287Z,11.71
2023-04-25T06:30:09.709Z,11.71
2023-04-25T06:30:41.590Z,11.77
2023-04-25T06:31:13.207Z,11.83
2023-04-25T06:31:44.984Z,11.83
2023-04-25T06:32:16.612Z,11.74
2023-04-25T06:32:48.803Z,11.81
2023-04-25T06:33:21.363Z,11.79
2023-04-25T06:33:55.779Z,11.88
2023-04-25T06:34:27.435Z,11.79
2023-04-25T06:34:59.441Z,11.81
2023-04-25T06:35:31.069Z,11.91
2023-04-25T06:36:02.678Z,11.83
2023-04-25T06:36:34.308Z,11.88
2023-04-25T06:37:05.939Z,11.84
2023-04-25T06:37:37.680Z,12.00
2023-04-25T06:38:10.117Z,11.98
2023-04-25T06:38:41.719Z,12.10
2023-04-25T06:39:14.087Z,12.18
2023-04-25T06:39:45.823Z,12.13
2023-04-25T06:40:18.541Z,12.00
2023-04-25T06:40:50.312Z,12.02
2023-04-25T06:41:22.304Z,12.18
2023-04-25T06:41:54.502Z,12.34
2023-04-25T06:42:26.181Z,12.35
2023-04-25T06:42:57.797Z,12.50
2023-04-25T06:43:29.578Z,12.55
2023-04-25T06:44:01.314Z,12.62
2023-04-25T06:44:33.152Z,12.62
2023-04-25T06:45:05.187Z,12.56
2023-04-25T06:45:36.929Z,12.63
2023-04-25T06:46:08.591Z,12.60
2023-04-25T06:46:40.269Z,12.70
2023-04-25T06:47:12.166Z,12.80
2023-04-25T06:47:44.165Z,12.82
2023-04-25T06:48:16.697Z,12.89
2023-04-25T06:48:48.639Z,12.75
2023-04-25T06:49:20.402Z,12.89
2023-04-25T06:49:52.043Z,12.86
2023-04-25T06:50:23.762Z,12.80
2023-04-25T06:50:55.623Z,12.85
2023-04-25T06:51:30.173Z,12.80
2023-04-25T06:52:01.857Z,12.87
2023-04-25T06:52:34.156Z,12.83
2023-04-25T06:53:05.978Z,12.97
2023-04-25T06:53:37.635Z,12.96
2023-04-25T06:54:09.581Z,13.10
2023-04-25T06:54:41.207Z,13.14
2023-04-25T06:55:12.853Z,13.13